Aérodrome :
LOGIN :

S'inscrire | Disclaimer

   EN    FR    IT 

 










Légende :    VFR   VFR Marginal   IFR   IFR Intensif   IFR Très Intensif
Visi : 
Plafond : 
>= 8 km
>= 3000ft
5 à 8 km
1000 à 3000 ft
1500m à 5 km
500 à 1000 ft
800 à 1500m
200 à 500 ft
< 800m
< 200 ft
Symboles :   Orages  Brouillard  Fortes neiges  Fortes précipitations  Vent > 20 kt
SIGMETs :   Divers  Orages  Givrage  Turbulence  Onde Orograph.  Cendres Volcan.







- Altitude de l'aérodrome : 289 ft
- Code IATA : BSK


DAUB - Mohamed Khider

DERNIER METAR :
  • 121700Z 12006KT 9999 FEW040 BKN200 16/00 Q1017

METARs EXPIRÉS :
  • 121600Z 12011KT 9999 FEW040 BKN200 18/01 Q1016
  • 121500Z 12012KT 9999 FEW040 BKN200 18/02 Q1016

TAF TAF DAUB
Valide du 12 à 18h jusqu'au 13 à 18h UTC


121700Z 1218/1318 12014KT 9999 FEW040 SCT200
BECMG 1222/1224 35010KT
Pas de NOTAMs connus pour ce terrain.
1 SIGMET publié pour la FIR Alger (DAAA) :
 
Turbulence forte
DAAA SIGMET 2 VALID 121500/121900 DAAA ALGIERS FIR SEV TURB FCST WI N3507 W00204 - N3454 W00018 - N3205 W00045 - N2709 W00446 - N2737 W00748 -N2901 W00751 - N3207 W00126 - N3507 W00204 TOP FL360/270 MOV NE=



MET'MAP, la Météo Aéronautique d'un coup d'oeil ! - Copyright ORBIFLY Décembre 2007 - Disclaimer

ORBIFLY MET'MAP TEAM :

Programmation & Développement : Alexandra Zaïnal
Conception & Développement : Baudouin d'Aumeries
Co-Programmation & Développement : Marc-Olivier Méhu
Soutien technique & logistique : Manuel Goepfert

Contact : metmap@orbifly.com




SOURCES & CREDITS :

   NOAA